Latest Weather Observations for Christmas Creek

IDW60801

Issued at 2:34 pm WST Friday 21 July 2017 (issued every 30 minutes, with the page automatically refreshed every 10 minutes)

About weather observations | Map of weather stations | Latest weather observations for WA | Other Formats
Station Details ID: 505049 Name: CHRISTMAS CREEK Lat: -22.36 Lon: 119.65 Height: 437.21 m
Data from the previous 72 hours. | See also: Recent months for locations in Western Australia
Date/Time
WST
Temp
°C
App
Temp
°C
Dew
Point
°C
Rel
Hum
%
Delta-T
°C
Wind Press
QNH
hPa
Press
MSL
hPa
Rain since
9am
mm
Dir  Spd
km/h
Gust
km/h
Spd
kts
Gust
kts
21/02:30pm 27.3 24.5 3.1 21 12.2 NNE 7 17 4 9 1015.3 1014.7 0.0
21/02:00pm 27.1 24.9 3.6 22 12.0 WSW 4 7 2 4 1015.7 1015.0 0.0
21/01:30pm 26.2 23.7 3.5 23 11.5 SE 6 13 3 7 1016.0 1015.3 0.0
21/01:00pm 25.9 23.3 4.4 25 11.0 SE 7 15 4 8 1016.5 1015.9 0.0
21/12:30pm 25.3 22.0 4.4 26 10.7 SSE 11 19 6 10 1016.9 1016.3 0.0
21/12:00pm 24.4 21.5 4.7 28 10.0 SE 9 17 5 9 1017.4 1016.8 0.0
21/11:30am 23.8 20.2 5.2 30 9.5 SE 13 20 7 11 1017.8 1017.2 0.0
21/11:00am 22.2 19.0 5.2 33 8.6 SE 11 19 6 10 1018.3 1017.7 0.0
21/10:30am 21.1 16.8 5.1 35 8.1 SE 17 22 9 12 1018.8 1018.2 0.0
21/10:00am 20.0 14.8 5.3 38 7.4 SE 22 32 12 17 1019.2 1018.6 0.0
21/09:30am 18.6 13.9 5.1 41 6.7 SE 19 24 10 13 1019.4 1018.8 0.0
21/09:00am 17.4 13.0 4.7 43 6.2 SE 17 26 9 14 1019.5 1018.9 0.0
21/08:30am 16.4 13.2 5.1 47 5.5 SE 11 15 6 8 1019.4 1018.8 0.0
21/08:00am 14.5 11.6 4.5 51 4.7 SSE 9 15 5 8 1019.0 1018.4 0.0
21/07:30am 13.2 11.1 3.8 53 4.4 SE 4 7 2 4 1018.7 1018.1 0.0
21/07:16am 12.7 10.5 3.6 54 4.2 SE 4 6 2 3 1018.5 1017.9 0.0
21/07:00am 12.0 9.4 3.3 55 3.9 SE 6 7 3 4 1018.4 1017.8 0.0
21/06:30am 11.5 9.7 3.3 57 3.7 ESE 2 4 1 2 1018.2 1017.5 0.0
21/06:00am 11.6 9.0 3.4 57 3.7 SE 6 6 3 3 1017.9 1017.3 0.0
21/05:30am 12.0 9.8 3.3 55 3.9 SE 4 7 2 4 1017.5 1016.9 0.0
21/05:00am 11.6 9.0 3.1 56 3.8 SE 6 7 3 4 1017.3 1016.7 0.0
21/04:30am 10.8 8.6 3.1 59 3.4 SE 4 6 2 3 1017.1 1016.5 0.0
21/04:00am 11.4 9.3 3.7 59 3.5 SE 4 6 2 3 1016.8 1016.2 0.0
21/03:30am 12.0 10.2 3.5 56 3.9 NNE 2 4 1 2 1016.7 1016.1 0.0
21/03:00am 12.3 10.6 3.8 56 3.9 SSE 2 4 1 2 1016.6 1016.0 0.0
21/02:30am 12.2 10.1 3.9 57 3.8 NW 4 6 2 3 1016.6 1016.0 0.0
21/02:00am 13.1 11.1 4.3 55 4.1 NNW 4 4 2 2 1016.7 1016.1 0.0
21/01:30am 13.6 11.6 4.5 54 4.3 NNW 4 6 2 3 1016.8 1016.2 0.0
21/01:00am 14.5 12.9 4.5 51 4.7 NNW 2 4 1 2 1016.8 1016.2 0.0
21/12:30am 16.5 14.4 3.9 43 6.0 WSW 4 6 2 3 1016.7 1016.1 0.0
21/12:00am 17.2 13.9 2.4 37 6.9 SW 9 15 5 8 1016.6 1016.0 0.0
 
Date/Time
WST
Temp
°C
App
Temp
°C
Dew
Point
°C
Rel
Hum
%
Delta-T
°C
Wind Press
QNH
hPa
Press
MSL
hPa
Rain since
9am
mm
Dir  Spd
km/h
Gust
km/h
Spd
kts
Gust
kts
20/11:30pm 18.0 13.8 1.9 34 7.4 N 13 17 7 9 1016.3 1015.7 0.0
20/11:00pm 18.9 14.4 1.9 32 7.9 N 15 20 8 11 1016.3 1015.7 0.0
20/10:30pm 18.6 14.1 2.4 34 7.6 N 15 19 8 10 1016.3 1015.7 0.0
20/10:00pm 18.6 14.1 2.4 34 7.6 N 15 17 8 9 1016.5 1015.9 0.0
20/09:30pm 18.8 14.8 2.6 34 7.6 N 13 17 7 9 1016.5 1015.9 0.0
20/09:00pm 18.3 15.6 2.6 35 7.4 N 6 9 3 5 1016.4 1015.8 0.0
20/08:30pm 18.7 15.5 2.9 35 7.5 N 9 15 5 8 1016.3 1015.7 0.0
20/08:00pm 18.7 16.4 2.9 35 7.5 N 4 6 2 3 1016.2 1015.5 0.0
20/07:30pm 18.8 16.2 3.0 35 7.5 N 6 9 3 5 1015.9 1015.2 0.0
20/07:00pm 19.6 17.8 3.3 34 7.8 NE 2 6 1 3 1015.5 1014.9 0.0
20/06:30pm 21.3 18.7 3.0 30 8.9 NE 6 7 3 4 1015.2 1014.6 0.0
20/06:00pm 23.3 20.6 2.7 26 10.1 NE 6 9 3 5 1014.9 1014.3 0.0
20/05:30pm 25.5 22.7 2.2 22 11.5 NNW 6 7 3 4 1014.7 1014.1 0.0
20/05:00pm 26.7 22.9 1.9 20 12.2 NW 11 19 6 10 1014.5 1013.9 0.0
20/04:30pm 27.2 24.2 2.3 20 12.4 NNW 7 15 4 8 1014.4 1013.8 0.0
20/04:00pm 27.0 24.2 2.1 20 12.3 N 6 13 3 7 1014.4 1013.8 0.0
20/03:30pm 27.7 24.1 2.7 20 12.6 W 11 20 6 11 1014.5 1013.9 0.0
20/03:00pm 27.4 23.7 2.5 20 12.5 WNW 11 20 6 11 1014.6 1014.0 0.0
20/02:30pm 26.9 23.3 2.7 21 12.1 WNW 11 28 6 15 1014.7 1014.1 0.0
20/02:00pm 26.5 22.9 3.1 22 11.8 WSW 11 22 6 12 1014.9 1014.3 0.0
20/01:30pm 25.9 22.7 3.2 23 11.4 WSW 9 20 5 11 1015.3 1014.7 0.0
20/01:00pm 25.7 23.0 3.6 24 11.1 W 7 15 4 8 1015.8 1015.1 0.0
20/12:30pm 25.8 22.8 4.3 25 11.0 SW 9 17 5 9 1016.4 1015.8 0.0
20/12:00pm 25.7 22.5 5.3 27 10.6 S 11 20 6 11 1017.0 1016.4 0.0
20/11:30am 24.2 21.1 5.5 30 9.7 SSE 11 20 6 11 1017.5 1016.9 0.0
20/11:00am 23.8 20.1 6.1 32 9.2 SE 15 20 8 11 1018.2 1017.5 0.0
20/10:30am 22.5 18.7 5.9 34 8.6 SSE 15 22 8 12 1018.6 1018.0 0.0
20/10:00am 22.3 18.1 5.7 34 8.5 S 17 24 9 13 1018.8 1018.2 0.0
20/09:30am 20.8 17.9 4.8 35 8.0 SSE 9 13 5 7 1018.8 1018.2 0.0
20/09:00am 19.5 16.5 4.0 36 7.5 S 9 13 5 7 1018.8 1018.2 0.0
20/08:30am 18.1 15.9 3.6 38 6.9 S 4 7 2 4 1018.5 1017.9 0.0
20/08:00am 16.7 15.1 4.7 45 5.8 WSW 2 11 1 6 1018.3 1017.7 0.0
20/07:30am 12.6 10.8 3.6 54 4.1 NNW 2 4 1 2 1017.7 1017.1 0.0
20/07:08am 12.3 10.2 3.8 56 3.9 N 4 17 2 9 1017.4 1016.8 0.0
20/07:00am 11.3 9.0 2.9 56 3.7 N 4 9 2 5 1017.3 1016.7 0.0
20/06:48am 10.4 8.1 2.7 59 3.4 N 4 6 2 3 1017.3 1016.7 0.0
20/06:30am 10.9 8.2 2.7 57 3.6 NW 6 7 3 4 1017.3 1016.7 0.0
20/06:00am 11.3 9.0 2.9 56 3.7 N 4 6 2 3 1017.1 1016.5 0.0
20/05:30am 10.4 8.5 2.7 59 3.4 W 2 6 1 3 1016.9 1016.3 0.0
20/05:00am 11.8 9.5 2.8 54 4.0 N 4 6 2 3 1016.6 1016.0 0.0
20/04:30am 11.9 9.6 2.9 54 4.0 N 4 6 2 3 1016.4 1015.8 0.0
20/04:00am 11.9 9.6 2.9 54 4.0 N 4 6 2 3 1016.3 1015.7 0.0
20/03:30am 12.6 10.7 3.0 52 4.3 E 2 4 1 2 1016.4 1015.8 0.0
20/03:00am 13.6 11.3 2.8 48 4.9 NW 4 6 2 3 1016.3 1015.7 0.0
20/02:30am 13.9 11.0 2.8 47 5.1 NNW 7 7 4 4 1016.4 1015.8 0.0
20/02:00am 14.2 11.4 3.1 47 5.1 WNW 7 11 4 6 1016.7 1016.1 0.0
20/01:30am 13.3 11.1 3.4 51 4.5 NNE 4 6 2 3 1016.7 1016.1 0.0
20/01:00am 13.9 11.7 3.4 49 4.8 NE 4 6 2 3 1016.9 1016.3 0.0
20/12:30am 15.2 12.6 3.4 45 5.5 WNW 6 7 3 4 1017.1 1016.5 0.0
20/12:00am 15.2 12.6 3.4 45 5.5 W 6 11 3 6 1017.0 1016.4 0.0
 
Date/Time
WST
Temp
°C
App
Temp
°C
Dew
Point
°C
Rel
Hum
%
Delta-T
°C
Wind Press
QNH
hPa
Press
MSL
hPa
Rain since
9am
mm
Dir  Spd
km/h
Gust
km/h
Spd
kts
Gust
kts
19/11:30pm 17.2 12.9 3.5 40 6.5 N 15 17 8 9 1016.8 1016.2 0.0
19/11:00pm 17.4 13.1 3.3 39 6.7 N 15 15 8 8 1016.9 1016.3 0.0
19/10:30pm 17.1 12.9 3.8 41 6.3 N 15 19 8 10 1017.2 1016.6 0.0
19/10:00pm 16.9 13.9 3.9 42 6.2 N 9 13 5 7 1017.2 1016.6 0.0
19/09:30pm 17.0 15.0 4.3 43 6.1 NNE 4 7 2 4 1017.3 1016.7 0.0
19/09:00pm 16.8 14.5 4.8 45 5.8 NNE 6 7 3 4 1017.4 1016.8 0.0
19/08:30pm 17.2 14.8 4.5 43 6.2 N 6 7 3 4 1017.4 1016.8 0.0
19/08:00pm 17.8 15.5 4.7 42 6.4 N 6 7 3 4 1017.4 1016.8 0.0
19/07:30pm 19.0 16.5 4.7 39 7.0 N 7 7 4 4 1017.2 1016.6 0.0
19/07:00pm 19.8 17.8 4.3 36 7.6 NW 4 6 2 3 1017.3 1016.7 0.0
19/06:30pm 20.7 18.8 4.7 35 8.0 NNE 4 6 2 3 1017.0 1016.4 0.0
19/06:00pm 23.8 21.8 4.2 28 9.9 SE 4 6 2 3 1016.9 1016.3 0.0
19/05:30pm 25.0 22.7 4.7 27 10.4 S 6 7 3 4 1016.7 1016.1 0.0
19/05:00pm 26.2 22.9 4.6 25 11.1 SSW 11 13 6 7 1016.5 1015.9 0.0
19/04:30pm 26.9 23.5 4.0 23 11.7 S 11 17 6 9 1016.3 1015.7 0.0
19/04:00pm 26.9 22.6 3.4 22 11.9 S 15 20 8 11 1016.3 1015.7 0.0
19/03:30pm 27.0 23.1 3.5 22 11.9 SSW 13 22 7 12 1016.3 1015.7 0.0
19/03:00pm 27.4 24.7 2.5 20 12.4 SE 6 11 3 6 1016.5 1015.9 0.0
19/02:30pm 27.3 24.1 3.1 21 12.2 WSW 9 13 5 7 1016.6 1016.0 0.0
19/02:00pm 27.6 25.0 3.3 21 12.3 WSW 6 11 3 6 1017.0 1016.4 0.0
19/01:30pm 27.1 25.2 4.8 24 11.6 SSE 4 7 2 4 1017.4 1016.8 0.0
19/01:00pm 26.7 24.2 3.9 23 11.6 ENE 6 11 3 6 1018.1 1017.4 0.0
19/12:30pm 25.8 23.4 5.4 27 10.6 S 7 17 4 9 1018.8 1018.2 0.0
19/12:00pm 25.1 23.0 5.8 29 10.1 SSW 6 11 3 6 1019.4 1018.8 0.0
19/11:30am 23.4 20.8 6.2 33 9.0 S 9 15 5 8 1019.8 1019.2 0.0
19/11:00am 23.3 21.5 5.2 31 9.2 S 4 13 2 7 1020.3 1019.8 0.0
19/10:30am 21.9 20.0 6.6 37 8.0 SSW 6 11 3 6 1020.9 1020.3 0.0
19/10:00am 20.4 18.4 7.1 42 6.9 SSW 7 13 4 7 1021.2 1020.6 0.0
19/09:30am 19.6 18.0 6.4 42 6.7 SW 4 7 2 4 1021.5 1020.9 0.0
19/09:00am 17.9 15.9 6.4 47 5.8 SW 6 7 3 4 1021.5 1020.9 0.0
19/08:30am 16.5 14.6 6.6 52 5.0 WSW 6 9 3 5 1021.4 1020.8 0.0
19/08:00am 14.7 13.5 6.5 58 4.1 SW 2 4 1 2 1021.1 1020.5 0.0
19/07:30am 12.7 10.8 6.7 67 2.9 SSW 6 7 3 4 1020.9 1020.3 0.0
19/07:07am 12.0 10.1 6.7 70 2.6 SSW 6 7 3 4 1020.7 1020.1 0.0
19/07:00am 11.9 10.0 6.6 70 2.6 SSW 6 7 3 4 1020.7 1020.1 0.0
19/06:50am 11.9 9.9 6.4 69 2.7 S 6 7 3 4 1020.6 1020.0 0.0
19/06:30am 12.2 10.1 6.0 66 3.0 S 6 7 3 4 1020.6 1020.0 0.0
19/06:00am 14.0 11.9 3.8 50 4.7 S 4 6 2 3 1020.3 1019.8 0.0
19/05:30am 17.7 15.0 3.6 39 6.7 E 7 17 4 9 1020.2 1019.7 0.0
19/05:00am 16.7 14.1 3.4 41 6.3 ESE 6 7 3 4 1020.1 1019.5 0.0
19/04:30am 17.2 13.3 3.5 40 6.5 NE 13 20 7 11 1019.8 1019.2 0.0
19/04:00am 17.8 12.8 3.7 39 6.7 NE 19 22 10 12 1019.6 1019.0 0.0
19/03:30am 18.2 13.0 3.7 38 7.0 NE 20 26 11 14 1019.7 1019.1 0.0
19/03:00am 18.9 13.7 3.5 36 7.4 ENE 20 28 11 15 1019.7 1019.1 0.0
19/02:30am 19.1 13.9 3.7 36 7.4 ENE 20 30 11 16 1019.8 1019.2 0.0
19/02:00am 19.2 14.0 3.8 36 7.4 ENE 20 30 11 16 1019.9 1019.3 0.0
19/01:30am 19.1 14.0 4.1 37 7.3 ENE 20 26 11 14 1020.2 1019.7 0.0
19/01:00am 18.9 14.3 3.9 37 7.2 ENE 17 22 9 12 1020.4 1019.9 0.0
19/12:30am 19.2 14.6 3.8 36 7.5 ENE 17 22 9 12 1020.7 1020.1 0.0
19/12:00am 19.2 15.0 3.8 36 7.4 ENE 15 19 8 10 1020.7 1020.1 0.0
 
Date/Time
WST
Temp
°C
App
Temp
°C
Dew
Point
°C
Rel
Hum
%
Delta-T
°C
Wind Press
QNH
hPa
Press
MSL
hPa
Rain since
9am
mm
Dir  Spd
km/h
Gust
km/h
Spd
kts
Gust
kts
18/11:30pm 16.9 13.9 3.9 42 6.2 ENE 9 11 5 6 1020.8 1020.2 0.0
18/11:00pm 14.6 11.8 3.4 47 5.2 ENE 7 9 4 5 1021.0 1020.4 0.0
18/10:30pm 15.3 12.8 3.8 46 5.4 NE 6 6 3 3 1021.2 1020.6 0.0
18/10:00pm 15.6 13.1 3.7 45 5.6 NE 6 6 3 3 1021.3 1020.7 0.0
18/09:30pm 16.1 13.9 3.5 43 5.9 NE 4 6 2 3 1021.4 1020.8 0.0
18/09:00pm 16.7 14.6 3.7 42 6.2 ESE 4 6 2 3 1021.4 1020.8 0.0
18/08:30pm 17.6 15.5 3.9 40 6.6 NE 4 6 2 3 1021.2 1020.6 0.0
18/08:00pm 18.3 15.9 4.5 40 6.7 NE 6 7 3 4 1021.0 1020.4 0.0
18/07:30pm 20.1 17.3 5.0 37 7.5 E 9 9 5 5 1020.8 1020.2 0.0
18/07:00pm 20.6 18.3 4.6 35 7.9 SE 6 6 3 3 1020.2 1019.7 0.0
18/06:30pm 22.1 20.4 4.2 31 8.9 S 2 4 1 2 1020.0 1019.4 0.0
18/06:00pm 23.4 21.0 4.4 29 9.6 SSW 6 7 3 4 1019.7 1019.1 0.0
18/05:30pm 25.6 23.0 4.1 25 10.9 SW 7 11 4 6 1019.4 1018.8 0.0
18/05:00pm 27.7 25.1 3.4 21 12.4 S 6 9 3 5 1019.3 1018.7 0.0
18/04:30pm 28.3 25.7 3.2 20 12.8 SE 6 15 3 8 1019.1 1018.5 0.0
18/04:00pm 28.3 26.0 2.5 19 13.0 SW 4 9 2 5 1018.9 1018.3 0.0
18/03:30pm 28.6 25.8 2.0 18 13.3 NE 6 11 3 6 1018.7 1018.1 0.0
18/03:00pm 28.7 25.9 2.1 18 13.3 N 6 11 3 6 1018.8 1018.2 0.0

Other Formats:

Comma delimited format used in spreadsheet applications
http://www.bom.gov.au/fwo/IDW60801/IDW60801.99737.axf

JavaScript Object Notation format (JSON) in row-major order
http://www.bom.gov.au/fwo/IDW60801/IDW60801.99737.json